METAR AND TAF INFORMATION
METAR FOR GOBD
ADDS - METARS form results

(0404 UTC 26 February 2020)
Data provider http://aviationweather.gov/metar/data/
 
METAR text: GOBD 260400Z 06011KT 2000 DU NSC 30/02 Q1010 NOSIG
Conditions at: GOBD (DAKAR/DIAGNE , SN) observed 0400 UTC 26 February 2020
Temperature: 30.0°C (86°F)
Dewpoint: 2.0°C (36°F) [RH = 17%]
Pressure (altimeter): 29.82 inches Hg (1010.0 mb)
Winds: from the ENE (60 degrees) at 13 MPH (11 knots; 5.7 m/s)
Visibility: 1.24 miles (2.00 km)
Ceiling: at least 12,000 feet AGL
Clouds: sky clear below 12,000 feet AGL
Weather: DU  (widespread dust)

METAR text: GOBD 260330Z 06013KT 2000 DU NSC 30/02 Q1010 NOSIG
Conditions at: GOBD (DAKAR/DIAGNE , SN) observed 0330 UTC 26 February 2020
Temperature: 30.0°C (86°F)
Dewpoint: 2.0°C (36°F) [RH = 17%]
Pressure (altimeter): 29.82 inches Hg (1010.0 mb)
Winds: from the ENE (60 degrees) at 15 MPH (13 knots; 6.7 m/s)
Visibility: 1.24 miles (2.00 km)
Ceiling: at least 12,000 feet AGL
Clouds: sky clear below 12,000 feet AGL
Weather: DU  (widespread dust)

Forecast for: GOBD (DAKAR/DIAGNE , SN)
Text: TAF GOBD 252314Z 2600/2706 07012KT 2000 DU NSC
Forecast period: 0000 UTC 26 February 2020 to 0600 UTC 27 February 2020
Forecast type: FROM: standard forecast or significant change
Winds: from the ENE (70 degrees) at 14 MPH (12 knots; 6.2 m/s)
Visibility: 1.24 miles (2.00 km)
Ceiling: unknown
Clouds: missing
Weather: DU  (widespread dust)

 AIRPORT MAP

 RUNWAY INFORMATION

 AIRPORT FREQUENCIES

 AIRPORT NEAR NAVIGATION AIDS



Powered by Virtual Airlines Manager [v2.6.2]